Time;durP1;ratioP1;P1;durP2;ratioP2;P2;SDS_P1;SDS_P2;PMS_P1;PMS_P2;Temp;Humidity;BMP_temperature;BMP_pressure;BME280_temperature;BME280_humidity;BME280_pressure;Samples;Min_cycle;Max_cycle;Signal;HPM_P1;HPM_P2
2021/10/01 00:00:02;;;;;;;;;;;;;;;8.71;81.88;100756.50;4994057;28;889;-59
2021/10/01 00:02:30;;;;;;;;;;;;;;;8.70;81.91;100755.69;4993891;28;875;-59
2021/10/01 00:04:57;;;;;;;;;;;;;;;8.67;81.85;100752.88;4992639;28;1355;-59
2021/10/01 00:07:24;;;;;;;;;;;;;;;8.63;81.90;100752.81;4994182;28;802;-59
2021/10/01 00:09:50;;;;;;;;;;;;;;;8.54;82.44;100746.75;4993772;28;921;-59
2021/10/01 00:15:20;;;;;;;;;;;;;;;8.32;82.83;100740.81;4993811;28;677;-59
2021/10/01 00:17:47;;;;;;;;;;;;;;;8.32;83.49;100745.50;4993703;28;1886;-59
2021/10/01 00:20:34;;;;;;;;;;;;;;;8.34;83.19;100746.75;4993645;28;823;-59
2021/10/01 00:23:01;;;;;;;;;;;;;;;8.38;83.08;100747.63;4993510;28;800;-59
2021/10/01 00:25:27;;;;;;;;;;;;;;;8.41;82.50;100743.38;4993545;28;799;-58
2021/10/01 00:27:54;;;;;;;;;;;;;;;8.44;82.35;100747.34;4993369;28;819;-59
2021/10/01 00:30:21;;;;;;;;;;;;;;;8.46;82.82;100747.78;4993418;28;875;-59
2021/10/01 00:32:48;;;;;;;;;;;;;;;8.44;82.30;100750.88;4993382;28;898;-59
2021/10/01 00:35:15;;;;;;;;;;;;;;;8.46;82.57;100745.03;4993374;28;839;-59
2021/10/01 00:37:42;;;;;;;;;;;;;;;8.43;82.28;100741.03;4993176;28;1969;-59
2021/10/01 00:40:10;;;;;;;;;;;;;;;8.51;82.04;100744.72;4993261;28;842;-59
2021/10/01 00:42:37;;;;;;;;;;;;;;;8.51;82.25;100744.72;4993137;28;846;-58
2021/10/01 00:45:04;;;;;;;;;;;;;;;8.48;81.93;100737.19;4993144;28;812;-59
2021/10/01 00:47:30;;;;;;;;;;;;;;;8.48;81.53;100737.19;4993074;28;874;-59
2021/10/01 00:49:57;;;;;;;;;;;;;;;8.51;81.54;100731.75;4993016;28;827;-59
2021/10/01 00:52:24;;;;;;;;;;;;;;;8.50;81.99;100738.41;4993065;28;808;-59
2021/10/01 00:54:52;;;;;;;;;;;;;;;8.48;82.06;100745.44;4992977;28;828;-59
2021/10/01 00:57:19;;;;;;;;;;;;;;;8.48;82.09;100728.91;4975290;28;1953;-59
2021/10/01 00:59:46;;;;;;;;;;;;;;;8.52;81.76;100724.28;4992123;28;871;-58
2021/10/01 01:02:14;;;;;;;;;;;;;;;8.57;81.44;100726.72;4992814;28;863;-58
2021/10/01 01:04:44;;;;;;;;;;;;;;;8.58;81.16;100720.84;4992744;28;858;-59
2021/10/01 01:07:22;;;;;;;;;;;;;;;8.60;81.42;100717.72;4992739;28;804;-59
2021/10/01 01:09:52;;;;;;;;;;;;;;;8.62;80.86;100711.84;4992717;28;923;-59
2021/10/01 01:12:35;;;;;;;;;;;;;;;8.66;80.89;100710.72;4993016;28;839;-59
2021/10/01 01:15:16;;;;;;;;;;;;;;;8.68;80.67;100710.38;4992608;28;840;-59
2021/10/01 01:17:43;;;;;;;;;;;;;;;8.66;80.42;100702.47;4992545;28;1898;-59
2021/10/01 01:20:17;;;;;;;;;;;;;;;8.61;80.20;100710.25;4992514;28;820;-58
2021/10/01 01:25:58;;;;;;;;;;;;;;;8.53;80.22;100703.81;4992467;28;610;-59
2021/10/01 01:28:24;;;;;;;;;;;;;;;8.45;80.49;100702.09;4992709;28;847;-58
2021/10/01 01:30:51;;;;;;;;;;;;;;;8.42;80.42;100702.84;4992844;28;768;-58
2021/10/01 05:33:23;;;;;;;;;;;;;;;10.64;69.58;100799.88;5012137;28;696;-58
2021/10/01 05:35:50;;;;;;;;;;;;;;;10.74;68.93;100809.47;5012061;28;822;-58
2021/10/01 05:38:18;;;;;;;;;;;;;;;10.83;68.82;100810.75;5011745;28;1902;-58
2021/10/01 05:40:45;;;;;;;;;;;;;;;10.90;67.81;100806.47;5011866;28;966;-58
2021/10/01 05:43:11;;;;;;;;;;;;;;;10.97;67.81;100809.31;5011901;28;918;-58
2021/10/01 06:00:52;;;;;;;;;;;;;;;11.81;64.86;100815.91;5011905;28;656;-58
2021/10/01 06:03:18;;;;;;;;;;;;;;;11.76;64.49;100809.94;5012055;28;897;-58
2021/10/01 06:05:45;;;;;;;;;;;;;;;11.74;64.39;100823.38;5011868;28;891;-58
2021/10/01 06:08:17;;;;;;;;;;;;;;;11.88;64.08;100817.13;5012456;28;751;-58
2021/10/01 06:10:43;;;;;;;;;;;;;;;12.07;63.37;100822.41;5011738;28;834;-58
2021/10/01 06:13:13;;;;;;;;;;;;;;;12.29;62.05;100826.09;5011748;28;802;-58
2021/10/01 06:15:45;;;;;;;;;;;;;;;12.33;61.95;100821.34;5011602;28;853;-59
2021/10/01 06:18:12;;;;;;;;;;;;;;;12.56;61.96;100825.78;5011353;28;1961;-60
2021/10/01 06:20:48;;;;;;;;;;;;;;;12.71;60.88;100829.41;5011514;28;1402;-58
2021/10/01 06:23:17;;;;;;;;;;;;;;;12.79;61.01;100828.22;5011861;28;823;-58
2021/10/01 06:25:45;;;;;;;;;;;;;;;12.83;61.45;100804.84;5011439;28;1011;-58
2021/10/01 06:28:24;;;;;;;;;;;;;;;13.14;60.05;100826.69;5011484;28;926;-58
2021/10/01 06:30:51;;;;;;;;;;;;;;;13.19;60.20;100823.53;5011428;28;963;-58
2021/10/01 06:33:17;;;;;;;;;;;;;;;13.35;60.66;100831.50;5011439;28;882;-58
2021/10/01 06:35:44;;;;;;;;;;;;;;;13.53;60.29;100825.94;5011410;28;819;-59
2021/10/01 06:38:11;;;;;;;;;;;;;;;13.87;60.71;100837.41;5011387;28;1918;-58
2021/10/01 06:40:38;;;;;;;;;;;;;;;13.96;58.86;100825.88;5011314;28;973;-58
2021/10/01 06:43:08;;;;;;;;;;;;;;;14.14;59.35;100837.72;5011425;28;898;-58
2021/10/01 06:45:35;;;;;;;;;;;;;;;14.90;56.77;100839.00;5011183;28;878;-58
2021/10/01 06:50:53;;;;;;;;;;;;;;;15.75;54.21;100832.44;5011314;28;696;-58
2021/10/01 08:18:19;;;;;;;;;;;;;;;18.95;47.66;100817.69;5013929;28;692;-59
2021/10/01 08:19:20;;;;;;;;;;;;;;;19.00;46.19;100808.75;5013123;28;1881;-59
2021/10/01 08:34:38;;;;;;;;;;;;;;;18.85;48.55;100805.47;5013209;28;677;-59
2021/10/01 08:37:05;;;;;;;;;;;;;;;19.12;45.93;100807.28;5013038;28;850;-59
2021/10/01 08:39:32;;;;;;;;;;;;;;;19.05;45.99;100799.03;5012819;28;1910;-59
2021/10/01 08:42:00;;;;;;;;;;;;;;;18.60;48.27;100794.03;5012874;28;843;-59
2021/10/01 08:44:29;;;;;;;;;;;;;;;18.60;46.51;100788.44;5012806;28;803;-59
2021/10/01 08:46:56;;;;;;;;;;;;;;;18.53;47.06;100789.38;5012786;28;795;-59
2021/10/01 08:49:23;;;;;;;;;;;;;;;18.71;45.28;100798.19;5012803;28;839;-59
2021/10/01 08:51:50;;;;;;;;;;;;;;;18.81;45.32;100782.38;5012726;28;1030;-59
2021/10/01 08:54:17;;;;;;;;;;;;;;;18.91;49.34;100780.56;5012669;28;831;-59
2021/10/01 08:56:43;;;;;;;;;;;;;;;19.05;46.82;100790.63;5012563;28;930;-59
2021/10/01 08:59:10;;;;;;;;;;;;;;;19.09;46.02;100780.13;5012523;28;1886;-59
2021/10/01 09:01:37;;;;;;;;;;;;;;;18.86;44.35;100784.66;5012609;28;846;-59
2021/10/01 09:04:04;;;;;;;;;;;;;;;18.94;44.08;100776.88;5012581;28;818;-59
2021/10/01 09:06:31;;;;;;;;;;;;;;;18.62;44.68;100786.78;5012431;28;921;-59
2021/10/01 09:09:00;;;;;;;;;;;;;;;18.34;44.49;100785.38;5012485;28;877;-60
2021/10/01 09:11:30;;;;;;;;;;;;;;;18.21;46.13;100792.88;5012271;28;963;-59
2021/10/01 09:14:04;;;;;;;;;;;;;;;18.10;44.58;100795.88;4994675;28;909;-59
2021/10/01 09:16:32;;;;;;;;;;;;;;;18.44;44.19;100778.78;5012256;28;900;-59
2021/10/01 09:18:59;;;;;;;;;;;;;;;18.76;42.85;100780.84;5011905;28;1886;-59
2021/10/01 09:21:26;;;;;;;;;;;;;;;19.02;43.61;100772.69;5011724;28;910;-59
2021/10/01 09:23:57;;;;;;;;;;;;;;;19.12;41.87;100776.44;4994578;28;862;-59
2021/10/01 09:26:25;;;;;;;;;;;;;;;19.09;43.16;100768.91;5012054;28;858;-59
2021/10/01 09:28:51;;;;;;;;;;;;;;;19.21;41.98;100784.25;5012125;28;954;-59
2021/10/01 09:31:45;;;;;;;;;;;;;;;18.98;43.17;100771.97;5012021;28;849;-59
2021/10/01 09:34:16;;;;;;;;;;;;;;;19.21;40.53;100776.63;5009746;28;1818;-59
2021/10/01 09:36:56;;;;;;;;;;;;;;;19.17;41.64;100782.31;5012052;28;807;-59
2021/10/01 09:39:27;;;;;;;;;;;;;;;19.20;40.71;100777.03;5011965;28;1913;-59
2021/10/01 09:41:57;;;;;;;;;;;;;;;18.55;41.47;100782.13;5011732;28;1074;-59
2021/10/01 09:44:27;;;;;;;;;;;;;;;18.75;43.21;100789.69;5012091;28;875;-59
2021/10/01 09:47:05;;;;;;;;;;;;;;;18.96;41.43;100774.41;5012133;28;831;-59
2021/10/01 09:49:33;;;;;;;;;;;;;;;18.64;41.96;100775.16;5011808;28;906;-58
2021/10/01 09:52:01;;;;;;;;;;;;;;;18.56;43.14;100780.09;4994378;28;882;-59
2021/10/01 09:54:28;;;;;;;;;;;;;;;18.31;42.74;100787.06;5011764;28;917;-59
2021/10/01 09:57:04;;;;;;;;;;;;;;;18.44;42.52;100781.56;5012016;28;830;-59
2021/10/01 09:59:32;;;;;;;;;;;;;;;19.08;41.57;100781.34;5011692;28;1906;-59
2021/10/01 10:01:58;;;;;;;;;;;;;;;19.25;42.45;100771.72;5012231;28;880;-59
2021/10/01 10:04:26;;;;;;;;;;;;;;;19.53;43.93;100769.41;5011706;28;902;-59
2021/10/01 10:06:51;;;;;;;;;;;;;;;19.93;40.99;100775.53;4994520;28;804;-59
2021/10/01 10:09:38;;;;;;;;;;;;;;;20.05;40.56;100762.75;5011676;28;885;-59
2021/10/01 10:12:12;;;;;;;;;;;;;;;19.93;39.38;100755.91;5011489;28;1895;-59
2021/10/01 10:14:44;;;;;;;;;;;;;;;19.68;41.37;100764.97;5011698;28;889;-59
2021/10/01 10:17:20;;;;;;;;;;;;;;;19.41;40.87;100767.31;5011840;28;991;-59
2021/10/01 10:19:49;;;;;;;;;;;;;;;18.95;41.66;100762.44;5011443;28;1886;-58
2021/10/01 10:22:16;;;;;;;;;;;;;;;18.87;42.85;100772.22;5011599;28;834;-58
2021/10/01 10:24:43;;;;;;;;;;;;;;;19.06;43.22;100767.00;5011481;28;952;-58
2021/10/01 10:27:10;;;;;;;;;;;;;;;19.58;43.02;100771.66;5011755;28;866;-59
2021/10/01 10:29:38;;;;;;;;;;;;;;;19.92;43.66;100770.38;5011342;28;942;-59
2021/10/01 10:32:06;;;;;;;;;;;;;;;20.21;43.17;100770.34;5014128;28;819;-59
2021/10/01 10:34:33;;;;;;;;;;;;;;;20.25;40.91;100767.41;5015669;28;826;-56
2021/10/01 10:37:09;;;;;;;;;;;;;;;20.18;42.13;100757.19;4997879;28;1677;-56
2021/10/01 10:39:38;;;;;;;;;;;;;;;19.90;42.96;100753.19;5015157;28;2002;-56
2021/10/01 10:42:07;;;;;;;;;;;;;;;19.52;41.46;100765.00;5015085;28;885;-56
2021/10/01 10:44:43;;;;;;;;;;;;;;;19.06;41.62;100767.00;5015018;28;866;-56
2021/10/01 10:47:11;;;;;;;;;;;;;;;18.67;44.05;100761.06;5015425;28;814;-59
2021/10/01 10:49:38;;;;;;;;;;;;;;;18.46;42.46;100753.94;5015051;28;822;-58
2021/10/01 10:52:23;;;;;;;;;;;;;;;18.88;41.86;100748.63;5014919;28;942;-58
2021/10/01 10:54:52;;;;;;;;;;;;;;;19.18;40.94;100749.44;5015237;28;1002;-58
2021/10/01 10:57:22;;;;;;;;;;;;;;;18.88;42.32;100745.00;5014943;28;941;-58
2021/10/01 10:59:56;;;;;;;;;;;;;;;18.52;43.72;100752.22;5014687;28;1894;-58
2021/10/01 11:02:29;;;;;;;;;;;;;;;18.14;44.85;100743.44;5014688;28;900;-58
2021/10/01 11:05:14;;;;;;;;;;;;;;;17.85;44.75;100758.00;5014697;28;937;-58
2021/10/01 11:07:47;;;;;;;;;;;;;;;17.91;45.33;100755.50;5015025;28;795;-58
2021/10/01 11:10:32;;;;;;;;;;;;;;;17.89;45.12;100747.53;5015331;28;763;-58
2021/10/01 11:13:17;;;;;;;;;;;;;;;18.20;46.48;100752.91;5014642;28;858;-58
2021/10/01 11:16:16;;;;;;;;;;;;;;;18.44;46.52;100750.78;5014647;28;823;-58
2021/10/01 11:18:45;;;;;;;;;;;;;;;18.64;45.03;100736.72;5001737;28;1882;-59
2021/10/01 11:21:24;;;;;;;;;;;;;;;18.37;42.82;100748.16;5014424;28;870;-58
2021/10/01 11:23:58;;;;;;;;;;;;;;;18.15;42.80;100740.19;5014361;28;881;-58
2021/10/01 11:26:26;;;;;;;;;;;;;;;17.83;43.12;100738.06;5014253;28;898;-58
2021/10/01 11:28:53;;;;;;;;;;;;;;;17.69;43.60;100735.53;5014400;28;874;-58
2021/10/01 11:31:20;;;;;;;;;;;;;;;17.65;45.30;100740.41;5014233;28;830;-59
2021/10/01 11:33:49;;;;;;;;;;;;;;;17.65;44.72;100743.97;5014123;28;886;-59
2021/10/01 11:36:16;;;;;;;;;;;;;;;17.55;44.37;100728.97;4996540;28;859;-58
2021/10/01 11:38:43;;;;;;;;;;;;;;;17.66;43.78;100741.97;5013943;28;1977;-58
2021/10/01 11:41:11;;;;;;;;;;;;;;;17.77;45.24;100728.56;5013858;28;957;-59
2021/10/01 11:44:08;;;;;;;;;;;;;;;17.97;46.43;100722.25;5013234;28;1115;-59
2021/10/01 11:46:35;;;;;;;;;;;;;;;18.25;46.26;100724.41;5001336;28;1380;-59
2021/10/01 11:49:06;;;;;;;;;;;;;;;18.21;45.09;100718.09;4996309;28;855;-59
2021/10/01 11:51:33;;;;;;;;;;;;;;;18.13;43.18;100717.47;5014681;28;747;-59
2021/10/01 11:54:07;;;;;;;;;;;;;;;17.79;43.77;100728.94;5014001;28;893;-58
2021/10/01 11:56:33;;;;;;;;;;;;;;;17.48;44.43;100726.34;5013799;28;819;-58
2021/10/01 11:59:01;;;;;;;;;;;;;;;17.29;44.66;100721.50;5013639;28;1882;-59
2021/10/01 12:01:28;;;;;;;;;;;;;;;17.28;44.61;100726.31;5013676;28;822;-59
2021/10/01 12:03:55;;;;;;;;;;;;;;;17.45;45.11;100729.97;5013558;28;859;-59
2021/10/01 12:06:28;;;;;;;;;;;;;;;17.68;45.25;100715.16;5013471;28;882;-58
2021/10/01 12:09:00;;;;;;;;;;;;;;;17.99;43.95;100722.56;5013399;28;882;-58
2021/10/01 12:11:28;;;;;;;;;;;;;;;17.94;44.78;100721.06;5013638;28;851;-59
2021/10/01 12:14:07;;;;;;;;;;;;;;;18.23;43.87;100718.47;5013430;28;831;-58
2021/10/01 12:16:35;;;;;;;;;;;;;;;18.10;43.56;100717.56;5013397;28;992;-59
2021/10/01 12:19:05;;;;;;;;;;;;;;;17.83;44.23;100717.72;5013056;28;1953;-59
2021/10/01 12:21:31;;;;;;;;;;;;;;;17.83;45.17;100706.53;5013240;28;859;-58
2021/10/01 12:24:12;;;;;;;;;;;;;;;17.91;45.62;100705.16;5013492;28;811;-58
2021/10/01 12:26:43;;;;;;;;;;;;;;;18.13;45.58;100717.47;5013135;28;866;-59
2021/10/01 12:29:14;;;;;;;;;;;;;;;18.12;45.19;100712.31;5013415;28;890;-59
2021/10/01 12:31:54;;;;;;;;;;;;;;;18.17;44.82;100714.59;5013149;28;799;-58
2021/10/01 12:34:29;;;;;;;;;;;;;;;18.14;45.47;100713.47;5013068;28;882;-56
2021/10/01 12:37:01;;;;;;;;;;;;;;;18.38;45.46;100712.56;5013173;28;866;-59
2021/10/01 12:39:28;;;;;;;;;;;;;;;18.09;44.83;100697.19;5012816;28;1915;-59
2021/10/01 12:41:56;;;;;;;;;;;;;;;17.86;45.68;100706.47;5012850;28;854;-58
2021/10/01 12:44:23;;;;;;;;;;;;;;;17.82;46.01;100702.13;5013365;28;803;-58
2021/10/01 12:46:51;;;;;;;;;;;;;;;18.17;46.70;100706.19;5012987;28;858;-58
2021/10/01 12:49:26;;;;;;;;;;;;;;;18.47;45.14;100712.75;5013090;28;866;-59
2021/10/01 12:52:10;;;;;;;;;;;;;;;18.23;44.25;100703.69;5012920;28;955;-58
2021/10/01 12:54:37;;;;;;;;;;;;;;;18.11;45.08;100694.72;5012050;28;924;-58
2021/10/01 12:57:10;;;;;;;;;;;;;;;18.07;44.68;100705.22;5012639;28;830;-58
2021/10/01 12:59:45;;;;;;;;;;;;;;;18.90;44.28;100689.34;5012509;28;1879;-59
2021/10/01 13:02:14;;;;;;;;;;;;;;;19.97;42.83;100685.63;5012671;28;795;-59
2021/10/01 13:04:46;;;;;;;;;;;;;;;20.40;41.57;100681.53;5012386;28;1462;-59
2021/10/01 13:07:23;;;;;;;;;;;;;;;20.20;40.55;100692.97;5012639;28;854;-57
2021/10/01 13:09:53;;;;;;;;;;;;;;;19.47;40.07;100690.63;5012212;28;969;-56
2021/10/01 13:12:45;;;;;;;;;;;;;;;18.72;40.99;100693.34;5012464;28;846;-56
2021/10/01 13:15:20;;;;;;;;;;;;;;;18.34;42.17;100691.03;5012846;28;826;-56
2021/10/01 13:18:05;;;;;;;;;;;;;;;18.02;42.35;100704.94;5012621;28;1105;-56
2021/10/01 13:20:33;;;;;;;;;;;;;;;17.84;42.67;100694.91;5012114;28;1317;-58
2021/10/01 13:23:02;;;;;;;;;;;;;;;17.78;42.88;100693.81;5012266;28;922;-58
2021/10/01 13:25:36;;;;;;;;;;;;;;;17.50;43.42;100707.13;5012206;28;992;-58
2021/10/01 13:28:04;;;;;;;;;;;;;;;17.35;43.63;100698.22;5012179;28;822;-58
2021/10/01 13:30:31;;;;;;;;;;;;;;;17.35;44.18;100698.22;5012304;28;940;-58
2021/10/01 13:32:58;;;;;;;;;;;;;;;17.34;43.88;100698.66;5012129;28;913;-58
2021/10/01 13:35:25;;;;;;;;;;;;;;;17.34;44.15;100693.06;5012147;28;839;-59
2021/10/01 13:37:52;;;;;;;;;;;;;;;17.26;44.39;100703.59;5011822;28;1970;-58
2021/10/01 13:40:20;;;;;;;;;;;;;;;17.18;44.82;100690.19;5012073;28;850;-59
2021/10/01 13:42:47;;;;;;;;;;;;;;;17.30;44.76;100697.91;5012117;28;823;-59
2021/10/01 13:45:13;;;;;;;;;;;;;;;17.47;44.68;100710.75;5012130;28;974;-59
2021/10/01 13:47:41;;;;;;;;;;;;;;;17.34;44.72;100704.22;5012197;28;897;-59
2021/10/01 13:50:09;;;;;;;;;;;;;;;17.34;44.79;100707.03;5011864;28;887;-58
2021/10/01 13:52:36;;;;;;;;;;;;;;;17.29;45.00;100707.53;5011901;28;858;-59
2021/10/01 13:55:04;;;;;;;;;;;;;;;17.27;45.05;100696.78;4994351;28;835;-59
2021/10/01 13:57:31;;;;;;;;;;;;;;;17.23;44.71;100714.81;4994149;28;867;-59
2021/10/01 13:59:58;;;;;;;;;;;;;;;16.99;45.12;100706.44;5011703;28;1887;-58
2021/10/01 14:02:25;;;;;;;;;;;;;;;16.67;45.65;100707.72;5011749;28;787;-58
2021/10/01 14:04:52;;;;;;;;;;;;;;;16.40;46.13;100706.94;5011717;28;814;-58
2021/10/01 14:07:20;;;;;;;;;;;;;;;16.02;46.82;100701.47;5014700;28;886;-58
2021/10/01 14:09:47;;;;;;;;;;;;;;;15.71;47.99;100709.78;5015948;28;796;-58
2021/10/01 14:12:15;;;;;;;;;;;;;;;15.47;48.51;100704.09;5016344;28;751;-58
2021/10/01 14:14:42;;;;;;;;;;;;;;;15.29;49.20;100709.03;5016222;28;835;-58
2021/10/01 14:17:08;;;;;;;;;;;;;;;15.13;49.87;100717.94;5016095;28;957;-58
2021/10/01 14:19:36;;;;;;;;;;;;;;;15.08;50.04;100710.84;4997959;28;1910;-58
2021/10/01 14:22:02;;;;;;;;;;;;;;;15.08;50.89;100716.41;5016061;28;799;-58
2021/10/01 14:24:29;;;;;;;;;;;;;;;15.02;51.30;100709.69;5016125;28;792;-58
2021/10/01 14:26:56;;;;;;;;;;;;;;;14.94;51.62;100710.16;5016085;28;807;-58
2021/10/01 14:29:23;;;;;;;;;;;;;;;14.76;52.77;100708.28;5016124;28;997;-58
2021/10/01 14:31:50;;;;;;;;;;;;;;;14.69;53.24;100714.72;5015388;28;867;-58
2021/10/01 14:34:16;;;;;;;;;;;;;;;14.62;53.54;100705.63;5015959;28;747;-58
2021/10/01 14:36:43;;;;;;;;;;;;;;;14.59;53.78;100709.22;5015283;28;902;-58
2021/10/01 14:39:10;;;;;;;;;;;;;;;14.51;53.84;100702.91;5015073;28;1906;-58
2021/10/01 14:41:37;;;;;;;;;;;;;;;14.54;54.17;100709.63;5015428;28;938;-58
2021/10/01 14:44:04;;;;;;;;;;;;;;;14.58;54.27;100705.66;5015089;28;882;-58
2021/10/01 14:46:30;;;;;;;;;;;;;;;14.59;54.18;100703.66;5015060;28;929;-58
2021/10/01 14:48:57;;;;;;;;;;;;;;;14.54;54.14;100715.19;5015040;28;704;-58
2021/10/01 14:51:25;;;;;;;;;;;;;;;14.47;54.07;100714.03;5014953;28;882;-58
2021/10/01 14:53:51;;;;;;;;;;;;;;;14.40;54.13;100713.28;5014892;28;918;-58
2021/10/01 14:56:19;;;;;;;;;;;;;;;14.42;54.32;100719.22;5014869;28;935;-58
2021/10/01 14:58:45;;;;;;;;;;;;;;;14.38;54.37;100724.03;5014677;28;1878;-58
2021/10/01 15:01:12;;;;;;;;;;;;;;;14.34;54.30;100718.50;5014999;28;886;-58
2021/10/01 15:03:38;;;;;;;;;;;;;;;14.29;54.47;100714.16;5014748;28;854;-58
2021/10/01 15:06:06;;;;;;;;;;;;;;;14.28;54.41;100714.56;5014739;28;897;-58
2021/10/01 15:08:33;;;;;;;;;;;;;;;14.26;54.21;100720.50;5014648;28;963;-58
2021/10/01 15:11:00;;;;;;;;;;;;;;;14.25;54.85;100726.47;5014572;28;838;-58
2021/10/01 15:13:27;;;;;;;;;;;;;;;14.20;54.78;100722.13;5014533;28;927;-58
2021/10/01 15:15:54;;;;;;;;;;;;;;;14.17;54.45;100720.19;5014580;28;882;-58
2021/10/01 15:18:21;;;;;;;;;;;;;;;14.12;55.00;100717.81;5013366;28;1941;-58
2021/10/01 15:20:48;;;;;;;;;;;;;;;14.14;55.17;100717.41;5014268;28;1460;-58
2021/10/01 15:23:16;;;;;;;;;;;;;;;14.09;55.28;100724.97;5014588;28;903;-58
2021/10/01 15:25:43;;;;;;;;;;;;;;;14.01;55.49;100725.41;5014393;28;830;-58
2021/10/01 15:28:09;;;;;;;;;;;;;;;13.95;55.96;100713.13;5014302;28;815;-58
2021/10/01 15:30:37;;;;;;;;;;;;;;;13.87;55.92;100720.72;5014253;28;856;-58
2021/10/01 15:33:08;;;;;;;;;;;;;;;13.84;56.39;100715.94;5014252;28;850;-58
2021/10/01 15:35:35;;;;;;;;;;;;;;;13.81;56.44;100722.31;5014237;28;980;-58
2021/10/01 15:38:04;;;;;;;;;;;;;;;13.79;56.45;100721.94;5014123;28;1910;-58
2021/10/01 15:40:32;;;;;;;;;;;;;;;13.78;56.72;100709.22;5014013;28;835;-58
2021/10/01 15:43:00;;;;;;;;;;;;;;;13.73;57.08;100717.97;5013991;28;977;-58
2021/10/01 15:45:27;;;;;;;;;;;;;;;13.72;57.06;100722.75;5014044;28;823;-58
2021/10/01 15:47:54;;;;;;;;;;;;;;;13.71;57.29;100710.03;5014012;28;795;-58
2021/10/01 15:50:21;;;;;;;;;;;;;;;13.71;57.27;100712.03;4996333;28;823;-58
2021/10/01 15:52:50;;;;;;;;;;;;;;;13.68;57.46;100711.63;5013934;28;870;-58
2021/10/01 15:55:20;;;;;;;;;;;;;;;13.68;57.60;100722.75;5013708;28;975;-58
2021/10/01 15:57:47;;;;;;;;;;;;;;;13.67;57.85;100728.69;5013755;28;846;-58
2021/10/01 16:00:16;;;;;;;;;;;;;;;13.65;58.16;100723.53;5013726;28;1945;-58
2021/10/01 16:02:43;;;;;;;;;;;;;;;13.64;58.13;100721.97;5013672;28;909;-58
2021/10/01 16:05:11;;;;;;;;;;;;;;;13.63;58.31;100720.38;5013697;28;822;-58
2021/10/01 16:07:39;;;;;;;;;;;;;;;13.63;58.41;100723.16;5013419;28;879;-58
2021/10/01 16:10:09;;;;;;;;;;;;;;;13.62;58.53;100726.34;5013618;28;874;-58
2021/10/01 16:12:36;;;;;;;;;;;;;;;13.61;58.58;100724.75;5013472;28;842;-58
2021/10/01 16:15:05;;;;;;;;;;;;;;;13.58;58.42;100729.13;5013343;28;939;-58
2021/10/01 16:17:35;;;;;;;;;;;;;;;13.58;58.35;100714.44;5013837;28;1049;-58
2021/10/01 16:20:03;;;;;;;;;;;;;;;13.57;58.12;100716.44;5012972;28;1949;-58
2021/10/01 16:22:30;;;;;;;;;;;;;;;13.58;58.53;100720.00;5013236;28;888;-58
2021/10/01 16:24:58;;;;;;;;;;;;;;;13.55;58.34;100724.38;5013188;28;914;-58
2021/10/01 16:27:25;;;;;;;;;;;;;;;13.53;58.61;100726.75;5013242;28;909;-58
2021/10/01 16:29:51;;;;;;;;;;;;;;;13.52;58.59;100719.59;5012934;28;928;-58
2021/10/01 16:32:19;;;;;;;;;;;;;;;13.51;58.82;100723.59;5013082;28;879;-58
2021/10/01 16:34:46;;;;;;;;;;;;;;;13.51;58.98;100722.81;5013097;28;865;-58
2021/10/01 16:37:13;;;;;;;;;;;;;;;13.47;59.19;100728.34;4995501;28;1259;-58
2021/10/01 16:39:40;;;;;;;;;;;;;;;13.45;59.65;100727.97;4995323;28;1979;-58
2021/10/01 16:42:07;;;;;;;;;;;;;;;13.44;59.86;100723.59;5013023;28;810;-58
2021/10/01 16:44:34;;;;;;;;;;;;;;;13.42;59.83;100720.41;4995456;28;1222;-58
2021/10/01 16:47:03;;;;;;;;;;;;;;;13.41;60.20;100718.84;5012877;28;851;-58
2021/10/01 16:49:30;;;;;;;;;;;;;;;13.40;59.98;100720.84;4995405;28;929;-58
2021/10/01 16:51:57;;;;;;;;;;;;;;;13.39;60.20;100716.47;5012698;28;1168;-58
2021/10/01 16:54:24;;;;;;;;;;;;;;;13.37;59.97;100710.50;5012702;28;878;-58
2021/10/01 16:56:51;;;;;;;;;;;;;;;13.39;60.34;100715.69;5012557;28;942;-58
2021/10/01 16:59:18;;;;;;;;;;;;;;;13.38;60.46;100714.09;5012636;28;1969;-58
2021/10/01 17:01:46;;;;;;;;;;;;;;;13.37;60.45;100718.06;5012695;28;914;-58
2021/10/01 17:04:13;;;;;;;;;;;;;;;13.37;60.54;100712.50;5012794;28;834;-58
2021/10/01 17:06:40;;;;;;;;;;;;;;;13.37;60.73;100715.28;5012350;28;859;-58
2021/10/01 17:09:07;;;;;;;;;;;;;;;13.35;60.84;100717.66;5012496;28;910;-58
2021/10/01 17:11:33;;;;;;;;;;;;;;;13.36;60.92;100724.81;5012535;28;839;-58
2021/10/01 17:14:00;;;;;;;;;;;;;;;13.36;61.06;100720.06;5012449;28;858;-58
2021/10/01 17:16:27;;;;;;;;;;;;;;;13.34;61.28;100721.66;5012471;28;926;-58
2021/10/01 17:18:54;;;;;;;;;;;;;;;13.33;61.32;100720.84;4994512;28;1949;-58
2021/10/01 17:21:22;;;;;;;;;;;;;;;13.33;61.58;100717.25;5012321;28;846;-58
2021/10/01 17:23:48;;;;;;;;;;;;;;;13.28;61.36;100718.44;5012403;28;931;-58
2021/10/01 17:26:15;;;;;;;;;;;;;;;13.30;61.77;100718.06;5012272;28;862;-58
2021/10/01 17:28:43;;;;;;;;;;;;;;;13.30;61.81;100715.31;5012240;28;895;-58
2021/10/01 17:31:10;;;;;;;;;;;;;;;13.27;62.23;100722.38;5012160;28;870;-58
2021/10/01 17:33:37;;;;;;;;;;;;;;;13.26;62.55;100713.28;5012155;28;818;-59
2021/10/01 17:36:04;;;;;;;;;;;;;;;13.23;62.60;100713.31;5012037;28;819;-58
2021/10/01 17:38:31;;;;;;;;;;;;;;;13.21;62.63;100710.13;5011979;28;1910;-58
2021/10/01 17:40:58;;;;;;;;;;;;;;;13.21;62.36;100715.69;4977778;28;1590;-59
2021/10/01 17:43:25;;;;;;;;;;;;;;;13.16;62.27;100711.31;5012147;28;882;-58
2021/10/01 17:45:52;;;;;;;;;;;;;;;13.12;62.00;100710.53;5011999;28;799;-58
2021/10/01 17:48:18;;;;;;;;;;;;;;;13.03;62.10;100726.78;5011940;28;878;-58
2021/10/01 17:50:45;;;;;;;;;;;;;;;12.95;62.28;100722.41;5011939;28;878;-58
2021/10/01 17:53:13;;;;;;;;;;;;;;;12.82;62.47;100725.59;5011867;28;925;-58
2021/10/01 17:55:40;;;;;;;;;;;;;;;12.75;62.27;100733.13;5011894;28;847;-58
2021/10/01 17:58:07;;;;;;;;;;;;;;;12.62;62.48;100718.84;5011661;28;1985;-58
2021/10/01 18:00:39;;;;;;;;;;;;;;;12.53;62.84;100735.84;5011963;28;878;-58
2021/10/01 18:03:07;;;;;;;;;;;;;;;12.40;63.22;100734.66;5011730;28;919;-58
2021/10/01 18:05:34;;;;;;;;;;;;;;;12.31;63.50;100737.78;5011620;28;854;-58
2021/10/01 18:08:00;;;;;;;;;;;;;;;12.21;63.57;100742.09;5011663;28;886;-58
2021/10/01 18:10:27;;;;;;;;;;;;;;;12.19;63.79;100740.91;5011599;28;867;-58
2021/10/01 18:12:54;;;;;;;;;;;;;;;12.16;63.86;100739.72;5011674;28;815;-58
2021/10/01 18:15:22;;;;;;;;;;;;;;;12.09;63.60;100745.22;5011896;28;843;-58
2021/10/01 18:17:50;;;;;;;;;;;;;;;12.00;64.00;100745.59;5011948;28;955;-57
2021/10/01 18:20:17;;;;;;;;;;;;;;;11.90;64.32;100746.31;5011365;28;1890;-58
2021/10/01 18:22:44;;;;;;;;;;;;;;;11.79;64.42;100735.16;5011601;28;858;-58
2021/10/01 18:25:12;;;;;;;;;;;;;;;11.63;64.91;100732.72;5011485;28;970;-58
2021/10/01 18:27:39;;;;;;;;;;;;;;;11.53;65.54;100744.53;5011471;28;831;-58
2021/10/01 18:30:09;;;;;;;;;;;;;;;11.49;65.55;100745.69;5011527;28;838;-58
2021/10/01 18:32:37;;;;;;;;;;;;;;;11.34;66.05;100748.34;5011391;28;874;-58
2021/10/01 18:35:04;;;;;;;;;;;;;;;11.21;66.81;100745.09;5011490;28;862;-58
2021/10/01 18:37:31;;;;;;;;;;;;;;;11.14;67.02;100749.78;5011629;28;819;-58
2021/10/01 18:39:58;;;;;;;;;;;;;;;11.04;67.32;100745.75;5011613;28;1975;-58
2021/10/01 18:42:26;;;;;;;;;;;;;;;10.90;67.72;100754.72;5011289;28;851;-58
2021/10/01 18:44:51;;;;;;;;;;;;;;;10.76;68.23;100755.38;5011652;28;839;-58
2021/10/01 18:47:18;;;;;;;;;;;;;;;10.63;68.33;100751.31;5011346;28;913;-58
2021/10/01 18:49:49;;;;;;;;;;;;;;;10.54;68.60;100756.34;5011272;28;907;-58
2021/10/01 18:52:17;;;;;;;;;;;;;;;10.48;68.88;100752.34;5012204;28;938;-58
2021/10/01 18:54:46;;;;;;;;;;;;;;;10.36;69.40;100756.94;5014939;28;871;-58
2021/10/01 18:57:13;;;;;;;;;;;;;;;10.27;69.56;100753.66;5014823;28;960;-58
2021/10/01 18:59:40;;;;;;;;;;;;;;;10.23;69.60;100747.28;5014892;28;1916;-58
2021/10/01 19:02:07;;;;;;;;;;;;;;;10.19;69.93;100747.25;5014863;28;905;-58
2021/10/01 19:04:34;;;;;;;;;;;;;;;10.12;70.13;100749.13;5014654;28;863;-58